sensor_id;sensor_type;location;lat;lon;timestamp;pressure;altitude;pressure_sealevel;temperature;humidity
21658;BME280;10990;48.174;9.782;2022-08-21T00:00:18;93249.34;;;16.62;100.00
21658;BME280;10990;48.174;9.782;2022-08-21T00:02:48;93222.63;;;16.79;100.00
21658;BME280;10990;48.174;9.782;2022-08-21T00:05:18;93214.75;;;16.72;100.00
21658;BME280;10990;48.174;9.782;2022-08-21T00:07:46;93216.53;;;16.67;100.00
21658;BME280;10990;48.174;9.782;2022-08-21T00:10:15;93203.69;;;16.80;100.00
21658;BME280;10990;48.174;9.782;2022-08-21T00:12:42;93209.97;;;16.74;100.00
21658;BME280;10990;48.174;9.782;2022-08-21T00:15:13;93204.56;;;16.86;100.00
21658;BME280;10990;48.174;9.782;2022-08-21T00:17:40;93213.81;;;16.78;100.00
21658;BME280;10990;48.174;9.782;2022-08-21T00:20:09;93231.44;;;16.63;100.00
21658;BME280;10990;48.174;9.782;2022-08-21T00:22:39;93215.19;;;16.81;100.00
21658;BME280;10990;48.174;9.782;2022-08-21T00:25:07;93230.72;;;16.67;100.00
21658;BME280;10990;48.174;9.782;2022-08-21T00:27:38;93231.56;;;16.51;100.00
21658;BME280;10990;48.174;9.782;2022-08-21T00:30:09;93242.78;;;16.70;100.00
21658;BME280;10990;48.174;9.782;2022-08-21T00:32:38;93279.19;;;16.42;100.00
21658;BME280;10990;48.174;9.782;2022-08-21T00:35:09;93317.75;;;16.34;100.00
21658;BME280;10990;48.174;9.782;2022-08-21T00:37:40;93350.97;;;16.27;100.00
21658;BME280;10990;48.174;9.782;2022-08-21T00:40:11;93387.72;;;16.08;100.00
21658;BME280;10990;48.174;9.782;2022-08-21T00:42:39;93381.88;;;15.94;100.00
21658;BME280;10990;48.174;9.782;2022-08-21T00:45:08;93361.25;;;15.89;100.00
21658;BME280;10990;48.174;9.782;2022-08-21T00:47:36;93333.53;;;15.90;100.00
21658;BME280;10990;48.174;9.782;2022-08-21T00:50:05;93317.16;;;15.99;100.00
21658;BME280;10990;48.174;9.782;2022-08-21T00:52:34;93309.81;;;16.06;100.00
21658;BME280;10990;48.174;9.782;2022-08-21T00:55:05;93314.84;;;16.02;100.00
21658;BME280;10990;48.174;9.782;2022-08-21T00:57:39;93331.81;;;15.84;100.00
21658;BME280;10990;48.174;9.782;2022-08-21T01:00:16;93317.16;;;15.99;100.00
21658;BME280;10990;48.174;9.782;2022-08-21T01:02:45;93327.91;;;16.04;100.00
21658;BME280;10990;48.174;9.782;2022-08-21T01:05:13;93359.34;;;15.73;100.00
21658;BME280;10990;48.174;9.782;2022-08-21T01:07:41;93362.72;;;15.68;100.00
21658;BME280;10990;48.174;9.782;2022-08-21T01:10:12;93361.19;;;15.73;100.00
21658;BME280;10990;48.174;9.782;2022-08-21T01:12:40;93351.06;;;15.86;100.00
21658;BME280;10990;48.174;9.782;2022-08-21T01:15:10;93343.53;;;15.83;100.00
21658;BME280;10990;48.174;9.782;2022-08-21T01:17:37;93338.00;;;15.73;100.00
21658;BME280;10990;48.174;9.782;2022-08-21T01:20:08;93334.31;;;15.74;100.00
21658;BME280;10990;48.174;9.782;2022-08-21T01:22:38;93332.75;;;15.50;100.00
21658;BME280;10990;48.174;9.782;2022-08-21T01:25:07;93326.72;;;15.54;100.00
21658;BME280;10990;48.174;9.782;2022-08-21T01:27:35;93318.69;;;15.66;100.00
21658;BME280;10990;48.174;9.782;2022-08-21T01:30:09;93305.75;;;15.86;100.00
21658;BME280;10990;48.174;9.782;2022-08-21T01:32:39;93328.22;;;15.50;100.00
21658;BME280;10990;48.174;9.782;2022-08-21T01:35:07;93318.28;;;15.45;100.00
21658;BME280;10990;48.174;9.782;2022-08-21T01:37:35;93305.59;;;15.64;100.00
21658;BME280;10990;48.174;9.782;2022-08-21T01:40:05;93289.94;;;15.68;100.00
21658;BME280;10990;48.174;9.782;2022-08-21T01:42:33;93274.88;;;15.74;100.00
21658;BME280;10990;48.174;9.782;2022-08-21T01:45:01;93292.53;;;15.51;100.00
21658;BME280;10990;48.174;9.782;2022-08-21T01:47:29;93294.22;;;15.40;100.00
21658;BME280;10990;48.174;9.782;2022-08-21T01:49:56;93287.75;;;15.36;100.00
21658;BME280;10990;48.174;9.782;2022-08-21T01:52:24;93279.22;;;15.51;100.00
21658;BME280;10990;48.174;9.782;2022-08-21T01:54:52;93283.31;;;15.42;100.00
21658;BME280;10990;48.174;9.782;2022-08-21T01:57:20;93271.00;;;15.53;100.00
21658;BME280;10990;48.174;9.782;2022-08-21T01:59:48;93272.97;;;15.57;100.00
21658;BME280;10990;48.174;9.782;2022-08-21T02:02:15;93291.75;;;15.51;100.00
21658;BME280;10990;48.174;9.782;2022-08-21T02:04:43;93305.25;;;15.32;100.00
21658;BME280;10990;48.174;9.782;2022-08-21T02:07:11;93306.28;;;15.43;100.00
21658;BME280;10990;48.174;9.782;2022-08-21T02:09:38;93308.69;;;15.44;100.00
21658;BME280;10990;48.174;9.782;2022-08-21T02:12:08;93305.53;;;15.47;100.00
21658;BME280;10990;48.174;9.782;2022-08-21T02:14:37;93340.97;;;15.08;100.00
21658;BME280;10990;48.174;9.782;2022-08-21T02:17:04;93346.66;;;14.88;100.00
21658;BME280;10990;48.174;9.782;2022-08-21T02:19:32;93324.50;;;15.11;100.00
21658;BME280;10990;48.174;9.782;2022-08-21T02:21:59;93324.38;;;15.17;100.00
21658;BME280;10990;48.174;9.782;2022-08-21T02:24:26;93344.13;;;14.93;100.00
21658;BME280;10990;48.174;9.782;2022-08-21T02:26:54;93321.28;;;15.09;100.00
21658;BME280;10990;48.174;9.782;2022-08-21T02:29:22;93329.88;;;14.87;100.00
21658;BME280;10990;48.174;9.782;2022-08-21T02:31:50;93331.25;;;14.78;100.00
21658;BME280;10990;48.174;9.782;2022-08-21T02:34:18;93309.81;;;15.08;100.00
21658;BME280;10990;48.174;9.782;2022-08-21T02:36:45;93315.94;;;15.20;100.00
21658;BME280;10990;48.174;9.782;2022-08-21T02:39:13;93353.22;;;15.09;100.00
21658;BME280;10990;48.174;9.782;2022-08-21T02:41:40;93371.78;;;15.04;100.00
21658;BME280;10990;48.174;9.782;2022-08-21T02:44:08;93387.97;;;14.90;100.00
21658;BME280;10990;48.174;9.782;2022-08-21T02:46:36;93410.66;;;14.81;100.00
21658;BME280;10990;48.174;9.782;2022-08-21T02:49:04;93415.59;;;14.66;100.00
21658;BME280;10990;48.174;9.782;2022-08-21T02:51:31;93407.22;;;14.50;100.00
21658;BME280;10990;48.174;9.782;2022-08-21T02:53:58;93391.19;;;14.57;100.00
21658;BME280;10990;48.174;9.782;2022-08-21T02:56:25;93383.72;;;14.35;100.00
21658;BME280;10990;48.174;9.782;2022-08-21T02:58:53;93361.03;;;14.33;100.00
21658;BME280;10990;48.174;9.782;2022-08-21T03:01:21;93322.63;;;14.59;100.00
21658;BME280;10990;48.174;9.782;2022-08-21T03:03:49;93321.91;;;14.52;100.00
21658;BME280;10990;48.174;9.782;2022-08-21T03:06:20;93320.06;;;14.64;100.00
21658;BME280;10990;48.174;9.782;2022-08-21T03:08:50;93337.88;;;14.52;100.00
21658;BME280;10990;48.174;9.782;2022-08-21T03:11:17;93330.00;;;14.69;100.00
21658;BME280;10990;48.174;9.782;2022-08-21T03:13:46;93335.44;;;14.74;100.00
21658;BME280;10990;48.174;9.782;2022-08-21T03:16:14;93361.59;;;14.65;100.00
21658;BME280;10990;48.174;9.782;2022-08-21T03:18:41;93400.66;;;14.11;100.00
21658;BME280;10990;48.174;9.782;2022-08-21T03:21:08;93395.63;;;14.33;100.00
21658;BME280;10990;48.174;9.782;2022-08-21T03:23:37;93407.47;;;14.19;100.00
21658;BME280;10990;48.174;9.782;2022-08-21T03:26:07;93422.06;;;13.86;100.00
21658;BME280;10990;48.174;9.782;2022-08-21T03:28:36;93403.66;;;14.03;100.00
21658;BME280;10990;48.174;9.782;2022-08-21T03:31:03;93396.03;;;14.18;100.00
21658;BME280;10990;48.174;9.782;2022-08-21T03:33:31;93400.25;;;13.96;100.00
21658;BME280;10990;48.174;9.782;2022-08-21T03:36:03;93393.84;;;13.85;100.00
21658;BME280;10990;48.174;9.782;2022-08-21T03:38:33;93379.78;;;13.84;100.00
21658;BME280;10990;48.174;9.782;2022-08-21T03:41:03;93356.50;;;14.10;100.00
21658;BME280;10990;48.174;9.782;2022-08-21T03:43:32;93363.00;;;14.14;100.00
21658;BME280;10990;48.174;9.782;2022-08-21T03:46:00;93380.81;;;14.25;100.00
21658;BME280;10990;48.174;9.782;2022-08-21T03:48:29;93416.31;;;14.19;100.00
21658;BME280;10990;48.174;9.782;2022-08-21T03:50:57;93449.34;;;13.93;100.00
21658;BME280;10990;48.174;9.782;2022-08-21T03:53:25;93479.16;;;13.95;100.00
21658;BME280;10990;48.174;9.782;2022-08-21T03:55:52;93509.81;;;13.98;100.00
21658;BME280;10990;48.174;9.782;2022-08-21T03:58:23;93526.59;;;13.80;100.00
21658;BME280;10990;48.174;9.782;2022-08-21T04:00:55;93525.91;;;13.66;100.00
21658;BME280;10990;48.174;9.782;2022-08-21T04:03:23;93507.44;;;13.71;100.00
21658;BME280;10990;48.174;9.782;2022-08-21T04:05:51;93514.97;;;13.56;100.00
21658;BME280;10990;48.174;9.782;2022-08-21T04:08:19;93489.16;;;13.63;100.00
21658;BME280;10990;48.174;9.782;2022-08-21T04:10:47;93465.09;;;13.76;100.00
21658;BME280;10990;48.174;9.782;2022-08-21T04:13:16;93460.56;;;13.77;100.00
21658;BME280;10990;48.174;9.782;2022-08-21T04:15:45;93470.41;;;13.76;100.00
21658;BME280;10990;48.174;9.782;2022-08-21T04:18:13;93474.59;;;13.65;100.00
21658;BME280;10990;48.174;9.782;2022-08-21T04:20:41;93465.84;;;13.65;100.00
21658;BME280;10990;48.174;9.782;2022-08-21T04:23:10;93447.13;;;13.90;100.00
21658;BME280;10990;48.174;9.782;2022-08-21T04:25:38;93461.78;;;13.81;100.00
21658;BME280;10990;48.174;9.782;2022-08-21T04:28:05;93487.16;;;13.40;100.00
21658;BME280;10990;48.174;9.782;2022-08-21T04:30:32;93458.63;;;13.72;100.00
21658;BME280;10990;48.174;9.782;2022-08-21T04:33:01;93459.31;;;13.79;100.00
21658;BME280;10990;48.174;9.782;2022-08-21T04:35:32;93470.19;;;13.59;100.00
21658;BME280;10990;48.174;9.782;2022-08-21T04:37:59;93467.97;;;13.75;100.00
21658;BME280;10990;48.174;9.782;2022-08-21T04:40:27;93486.44;;;13.70;100.00
21658;BME280;10990;48.174;9.782;2022-08-21T04:42:56;93483.19;;;13.86;100.00
21658;BME280;10990;48.174;9.782;2022-08-21T04:45:27;93501.53;;;13.87;100.00
21658;BME280;10990;48.174;9.782;2022-08-21T04:47:56;93521.38;;;13.85;100.00
21658;BME280;10990;48.174;9.782;2022-08-21T04:50:29;93530.75;;;13.87;100.00
21658;BME280;10990;48.174;9.782;2022-08-21T04:53:05;93528.25;;;14.11;100.00
21658;BME280;10990;48.174;9.782;2022-08-21T04:55:33;93547.38;;;14.20;100.00
21658;BME280;10990;48.174;9.782;2022-08-21T04:58:00;93577.66;;;14.00;100.00
21658;BME280;10990;48.174;9.782;2022-08-21T05:00:28;93568.28;;;13.98;100.00
21658;BME280;10990;48.174;9.782;2022-08-21T05:02:57;93575.84;;;14.12;100.00
21658;BME280;10990;48.174;9.782;2022-08-21T05:05:28;93561.22;;;14.22;100.00
21658;BME280;10990;48.174;9.782;2022-08-21T05:07:57;93562.09;;;14.52;100.00
21658;BME280;10990;48.174;9.782;2022-08-21T05:10:27;93567.41;;;14.52;100.00
21658;BME280;10990;48.174;9.782;2022-08-21T05:12:55;93560.75;;;14.62;100.00
21658;BME280;10990;48.174;9.782;2022-08-21T05:15:22;93563.66;;;14.72;100.00
21658;BME280;10990;48.174;9.782;2022-08-21T05:17:49;93540.81;;;14.94;100.00
21658;BME280;10990;48.174;9.782;2022-08-21T05:20:18;93536.69;;;15.10;100.00
21658;BME280;10990;48.174;9.782;2022-08-21T05:22:47;93529.19;;;15.42;100.00
21658;BME280;10990;48.174;9.782;2022-08-21T05:25:16;93551.41;;;15.36;100.00
21658;BME280;10990;48.174;9.782;2022-08-21T05:27:42;93565.31;;;15.38;100.00
21658;BME280;10990;48.174;9.782;2022-08-21T05:30:11;93568.22;;;15.60;100.00
21658;BME280;10990;48.174;9.782;2022-08-21T05:32:38;93561.78;;;15.80;100.00
21658;BME280;10990;48.174;9.782;2022-08-21T05:35:07;93596.16;;;15.81;100.00
21658;BME280;10990;48.174;9.782;2022-08-21T05:37:34;93608.09;;;16.02;100.00
21658;BME280;10990;48.174;9.782;2022-08-21T05:40:05;93653.19;;;16.04;100.00
21658;BME280;10990;48.174;9.782;2022-08-21T05:42:33;93680.75;;;16.33;100.00
21658;BME280;10990;48.174;9.782;2022-08-21T05:45:00;93744.91;;;16.26;100.00
21658;BME280;10990;48.174;9.782;2022-08-21T05:47:28;93766.78;;;16.05;100.00
21658;BME280;10990;48.174;9.782;2022-08-21T05:49:55;93773.91;;;16.34;100.00
21658;BME280;10990;48.174;9.782;2022-08-21T05:52:22;93770.97;;;16.95;100.00
21658;BME280;10990;48.174;9.782;2022-08-21T05:54:49;93801.53;;;16.75;100.00
21658;BME280;10990;48.174;9.782;2022-08-21T05:57:21;93774.50;;;16.95;100.00
21658;BME280;10990;48.174;9.782;2022-08-21T05:59:51;93794.66;;;17.03;100.00
21658;BME280;10990;48.174;9.782;2022-08-21T06:02:18;93817.75;;;17.21;100.00
21658;BME280;10990;48.174;9.782;2022-08-21T06:04:47;93843.97;;;17.36;100.00
21658;BME280;10990;48.174;9.782;2022-08-21T06:07:15;93886.56;;;17.54;100.00
21658;BME280;10990;48.174;9.782;2022-08-21T06:09:43;93902.91;;;17.69;100.00
21658;BME280;10990;48.174;9.782;2022-08-21T06:12:11;93918.25;;;18.14;100.00
21658;BME280;10990;48.174;9.782;2022-08-21T06:14:41;93962.78;;;18.49;100.00
21658;BME280;10990;48.174;9.782;2022-08-21T06:17:10;94018.88;;;18.56;100.00
21658;BME280;10990;48.174;9.782;2022-08-21T06:19:38;94044.69;;;18.62;100.00
21658;BME280;10990;48.174;9.782;2022-08-21T06:22:05;94071.66;;;18.72;100.00
21658;BME280;10990;48.174;9.782;2022-08-21T06:24:33;94079.44;;;18.86;100.00
21658;BME280;10990;48.174;9.782;2022-08-21T06:27:04;94113.44;;;18.85;100.00
21658;BME280;10990;48.174;9.782;2022-08-21T06:29:32;94118.31;;;19.17;100.00
21658;BME280;10990;48.174;9.782;2022-08-21T06:32:01;94131.06;;;19.55;100.00
21658;BME280;10990;48.174;9.782;2022-08-21T06:34:29;94169.84;;;20.15;100.00
21658;BME280;10990;48.174;9.782;2022-08-21T06:36:56;94236.81;;;20.22;100.00
21658;BME280;10990;48.174;9.782;2022-08-21T06:39:24;94268.00;;;20.56;100.00
21658;BME280;10990;48.174;9.782;2022-08-21T06:41:51;94319.84;;;20.57;100.00
21658;BME280;10990;48.174;9.782;2022-08-21T06:44:22;94339.78;;;20.78;100.00
21658;BME280;10990;48.174;9.782;2022-08-21T06:46:50;94353.31;;;21.61;100.00
21658;BME280;10990;48.174;9.782;2022-08-21T06:49:18;94397.56;;;21.70;100.00
21658;BME280;10990;48.174;9.782;2022-08-21T06:51:46;94424.34;;;21.60;100.00
21658;BME280;10990;48.174;9.782;2022-08-21T06:54:14;94436.63;;;21.73;100.00
21658;BME280;10990;48.174;9.782;2022-08-21T06:56:41;94442.16;;;21.44;100.00
21658;BME280;10990;48.174;9.782;2022-08-21T06:59:08;94430.16;;;21.96;100.00
21658;BME280;10990;48.174;9.782;2022-08-21T07:01:35;94458.59;;;22.79;100.00
21658;BME280;10990;48.174;9.782;2022-08-21T07:04:04;94511.88;;;23.59;100.00
21658;BME280;10990;48.174;9.782;2022-08-21T07:06:33;94558.09;;;24.00;100.00
21658;BME280;10990;48.174;9.782;2022-08-21T07:09:00;94612.38;;;24.41;100.00
21658;BME280;10990;48.174;9.782;2022-08-21T07:11:29;94649.53;;;24.60;100.00
21658;BME280;10990;48.174;9.782;2022-08-21T07:13:56;94698.72;;;24.57;100.00
21658;BME280;10990;48.174;9.782;2022-08-21T07:16:24;94721.38;;;24.94;100.00
21658;BME280;10990;48.174;9.782;2022-08-21T07:18:51;94733.19;;;24.72;100.00
21658;BME280;10990;48.174;9.782;2022-08-21T07:21:20;94796.22;;;24.78;100.00
21658;BME280;10990;48.174;9.782;2022-08-21T07:23:50;94819.63;;;24.99;100.00
21658;BME280;10990;48.174;9.782;2022-08-21T07:26:19;94775.22;;;24.53;100.00
21658;BME280;10990;48.174;9.782;2022-08-21T07:28:49;94810.41;;;24.95;100.00
21658;BME280;10990;48.174;9.782;2022-08-21T07:31:23;94858.44;;;25.58;100.00
21658;BME280;10990;48.174;9.782;2022-08-21T07:33:51;94920.69;;;25.53;100.00
21658;BME280;10990;48.174;9.782;2022-08-21T07:36:18;94894.50;;;25.63;100.00
21658;BME280;10990;48.174;9.782;2022-08-21T07:38:48;94996.06;;;25.29;100.00
21658;BME280;10990;48.174;9.782;2022-08-21T07:41:18;95011.13;;;25.89;100.00
21658;BME280;10990;48.174;9.782;2022-08-21T07:43:46;95056.38;;;25.88;100.00
21658;BME280;10990;48.174;9.782;2022-08-21T07:46:14;95161.13;;;26.90;100.00
21658;BME280;10990;48.174;9.782;2022-08-21T07:48:42;95277.06;;;26.99;100.00
21658;BME280;10990;48.174;9.782;2022-08-21T07:51:12;95304.78;;;26.64;100.00
21658;BME280;10990;48.174;9.782;2022-08-21T07:53:40;95313.25;;;27.15;100.00
21658;BME280;10990;48.174;9.782;2022-08-21T07:56:09;95306.75;;;26.74;100.00
21658;BME280;10990;48.174;9.782;2022-08-21T07:58:38;95369.50;;;27.62;100.00
21658;BME280;10990;48.174;9.782;2022-08-21T08:01:05;95518.56;;;27.16;100.00
21658;BME280;10990;48.174;9.782;2022-08-21T08:03:34;95508.53;;;27.49;100.00
21658;BME280;10990;48.174;9.782;2022-08-21T08:06:02;95494.03;;;27.11;100.00
21658;BME280;10990;48.174;9.782;2022-08-21T08:08:30;95542.56;;;28.42;100.00
21658;BME280;10990;48.174;9.782;2022-08-21T08:10:58;95625.69;;;28.22;100.00
21658;BME280;10990;48.174;9.782;2022-08-21T08:13:27;95654.28;;;28.67;100.00
21658;BME280;10990;48.174;9.782;2022-08-21T08:15:54;95674.78;;;28.05;100.00
21658;BME280;10990;48.174;9.782;2022-08-21T08:18:22;95673.31;;;27.38;100.00
21658;BME280;10990;48.174;9.782;2022-08-21T08:20:49;95678.81;;;28.77;100.00
21658;BME280;10990;48.174;9.782;2022-08-21T08:23:16;95704.63;;;29.12;100.00
21658;BME280;10990;48.174;9.782;2022-08-21T08:25:43;95702.09;;;29.63;100.00
21658;BME280;10990;48.174;9.782;2022-08-21T08:28:11;95715.75;;;29.79;100.00
21658;BME280;10990;48.174;9.782;2022-08-21T08:30:39;95722.06;;;29.89;100.00
21658;BME280;10990;48.174;9.782;2022-08-21T08:33:08;95734.16;;;29.36;100.00
21658;BME280;10990;48.174;9.782;2022-08-21T08:35:36;95745.59;;;29.33;100.00
21658;BME280;10990;48.174;9.782;2022-08-21T08:38:03;95745.59;;;30.36;100.00
21658;BME280;10990;48.174;9.782;2022-08-21T08:40:36;95763.81;;;29.27;100.00
21658;BME280;10990;48.174;9.782;2022-08-21T08:43:06;95767.09;;;29.29;100.00
21658;BME280;10990;48.174;9.782;2022-08-21T08:45:36;95758.75;;;29.61;100.00
21658;BME280;10990;48.174;9.782;2022-08-21T08:48:10;95774.72;;;30.21;94.78
21658;BME280;10990;48.174;9.782;2022-08-21T08:50:46;95767.41;;;30.93;93.57
21658;BME280;10990;48.174;9.782;2022-08-21T08:53:17;95761.41;;;30.86;99.98
21658;BME280;10990;48.174;9.782;2022-08-21T08:55:48;95768.22;;;31.03;85.34
21658;BME280;10990;48.174;9.782;2022-08-21T08:58:23;95779.88;;;29.91;91.23
21658;BME280;10990;48.174;9.782;2022-08-21T09:00:54;95766.56;;;31.83;85.30
21658;BME280;10990;48.174;9.782;2022-08-21T09:03:24;95776.31;;;31.34;84.36
21658;BME280;10990;48.174;9.782;2022-08-21T09:06:08;95769.22;;;31.28;88.18
21658;BME280;10990;48.174;9.782;2022-08-21T09:08:48;95766.06;;;32.20;76.00
21658;BME280;10990;48.174;9.782;2022-08-21T09:11:24;95772.47;;;32.50;73.95
21658;BME280;10990;48.174;9.782;2022-08-21T09:14:00;95770.56;;;32.79;69.77
21658;BME280;10990;48.174;9.782;2022-08-21T09:16:39;95766.63;;;32.22;71.72
21658;BME280;10990;48.174;9.782;2022-08-21T09:19:25;95767.28;;;32.04;77.03
21658;BME280;10990;48.174;9.782;2022-08-21T09:22:03;95776.44;;;30.83;59.64
21658;BME280;10990;48.174;9.782;2022-08-21T09:24:42;95777.19;;;30.17;61.84
21658;BME280;10990;48.174;9.782;2022-08-21T09:27:14;95786.19;;;29.34;62.19
21658;BME280;10990;48.174;9.782;2022-08-21T09:29:44;95772.59;;;30.79;60.23
21658;BME280;10990;48.174;9.782;2022-08-21T09:32:16;95781.59;;;29.40;66.46
21658;BME280;10990;48.174;9.782;2022-08-21T09:34:57;95767.81;;;29.72;64.66
21658;BME280;10990;48.174;9.782;2022-08-21T09:37:26;95763.72;;;31.48;60.54
21658;BME280;10990;48.174;9.782;2022-08-21T09:39:55;95771.78;;;30.43;55.57
21658;BME280;10990;48.174;9.782;2022-08-21T09:42:26;95784.53;;;28.91;59.49
21658;BME280;10990;48.174;9.782;2022-08-21T09:45:13;95772.94;;;29.58;64.88
21658;BME280;10990;48.174;9.782;2022-08-21T09:47:42;95760.81;;;30.07;59.70
21658;BME280;10990;48.174;9.782;2022-08-21T09:50:15;95746.53;;;31.33;50.97
21658;BME280;10990;48.174;9.782;2022-08-21T09:52:46;95753.06;;;31.42;56.29
21658;BME280;10990;48.174;9.782;2022-08-21T09:55:18;95749.06;;;32.28;55.49
21658;BME280;10990;48.174;9.782;2022-08-21T09:58:01;95753.50;;;32.58;51.56
21658;BME280;10990;48.174;9.782;2022-08-21T10:00:31;95757.16;;;32.04;55.11
21658;BME280;10990;48.174;9.782;2022-08-21T10:03:12;95746.34;;;32.23;56.08
21658;BME280;10990;48.174;9.782;2022-08-21T10:05:53;95764.44;;;30.33;58.18
21658;BME280;10990;48.174;9.782;2022-08-21T10:08:24;95755.13;;;30.59;65.19
21658;BME280;10990;48.174;9.782;2022-08-21T10:10:55;95748.31;;;30.52;64.97
21658;BME280;10990;48.174;9.782;2022-08-21T10:13:36;95749.66;;;30.95;58.48
21658;BME280;10990;48.174;9.782;2022-08-21T10:16:18;95748.50;;;29.89;65.52
21658;BME280;10990;48.174;9.782;2022-08-21T10:19:02;95737.94;;;30.64;64.23
21658;BME280;10990;48.174;9.782;2022-08-21T10:21:37;95736.53;;;30.77;60.43
21658;BME280;10990;48.174;9.782;2022-08-21T10:24:13;95745.88;;;30.25;59.82
21658;BME280;10990;48.174;9.782;2022-08-21T10:26:58;95730.00;;;30.68;56.47
21658;BME280;10990;48.174;9.782;2022-08-21T10:29:42;95741.03;;;29.48;56.90
21658;BME280;10990;48.174;9.782;2022-08-21T10:32:23;95751.91;;;28.96;59.64
21658;BME280;10990;48.174;9.782;2022-08-21T10:35:00;95753.34;;;28.61;61.16
21658;BME280;10990;48.174;9.782;2022-08-21T10:37:44;95737.88;;;29.82;54.40
21658;BME280;10990;48.174;9.782;2022-08-21T10:40:22;95744.16;;;28.72;60.63
21658;BME280;10990;48.174;9.782;2022-08-21T10:43:01;95727.53;;;29.94;55.00
21658;BME280;10990;48.174;9.782;2022-08-21T10:45:39;95723.88;;;29.58;58.30
21658;BME280;10990;48.174;9.782;2022-08-21T10:48:15;95717.19;;;30.32;54.08
21658;BME280;10990;48.174;9.782;2022-08-21T10:50:51;95718.56;;;31.56;53.02
21658;BME280;10990;48.174;9.782;2022-08-21T10:53:41;95733.00;;;30.00;54.12
21658;BME280;10990;48.174;9.782;2022-08-21T10:56:16;95711.97;;;30.97;52.05
21658;BME280;10990;48.174;9.782;2022-08-21T10:59:04;95715.09;;;31.35;48.68
21658;BME280;10990;48.174;9.782;2022-08-21T11:01:44;95717.91;;;29.66;52.28
21658;BME280;10990;48.174;9.782;2022-08-21T11:04:20;95728.41;;;28.42;54.03
21658;BME280;10990;48.174;9.782;2022-08-21T11:06:53;95724.41;;;28.50;58.68
21658;BME280;10990;48.174;9.782;2022-08-21T11:09:27;95731.03;;;28.64;56.12
21658;BME280;10990;48.174;9.782;2022-08-21T11:11:58;95731.78;;;27.02;61.45
21658;BME280;10990;48.174;9.782;2022-08-21T11:14:36;95734.97;;;26.43;71.36
21658;BME280;10990;48.174;9.782;2022-08-21T11:17:09;95720.97;;;27.24;71.98
21658;BME280;10990;48.174;9.782;2022-08-21T11:19:42;95724.53;;;27.52;62.94
21658;BME280;10990;48.174;9.782;2022-08-21T11:22:15;95724.53;;;27.52;63.72
21658;BME280;10990;48.174;9.782;2022-08-21T11:24:52;95710.72;;;28.12;55.98
21658;BME280;10990;48.174;9.782;2022-08-21T11:27:26;95709.47;;;28.52;54.41
21658;BME280;10990;48.174;9.782;2022-08-21T11:29:56;95712.78;;;28.32;56.01
21658;BME280;10990;48.174;9.782;2022-08-21T11:32:36;95717.16;;;27.25;60.43
21658;BME280;10990;48.174;9.782;2022-08-21T11:35:16;95715.25;;;27.75;57.04
21658;BME280;10990;48.174;9.782;2022-08-21T11:37:56;95717.44;;;26.85;57.87
21658;BME280;10990;48.174;9.782;2022-08-21T11:40:37;95703.75;;;27.40;65.87
21658;BME280;10990;48.174;9.782;2022-08-21T11:43:11;95703.50;;;27.91;59.05
21658;BME280;10990;48.174;9.782;2022-08-21T11:45:45;95697.97;;;28.13;57.30
21658;BME280;10990;48.174;9.782;2022-08-21T11:48:27;95702.81;;;27.30;64.75
21658;BME280;10990;48.174;9.782;2022-08-21T11:51:05;95701.94;;;27.46;69.73
21658;BME280;10990;48.174;9.782;2022-08-21T11:53:38;95706.38;;;26.91;74.15
21658;BME280;10990;48.174;9.782;2022-08-21T11:56:13;95690.38;;;27.34;66.80
21658;BME280;10990;48.174;9.782;2022-08-21T11:58:47;95691.56;;;26.60;69.52
21658;BME280;10990;48.174;9.782;2022-08-21T12:01:20;95690.56;;;26.49;76.79
21658;BME280;10990;48.174;9.782;2022-08-21T12:03:54;95693.81;;;25.96;78.83
21658;BME280;10990;48.174;9.782;2022-08-21T12:06:30;95697.66;;;25.25;84.56
21658;BME280;10990;48.174;9.782;2022-08-21T12:09:02;95690.16;;;25.73;86.55
21658;BME280;10990;48.174;9.782;2022-08-21T12:11:31;95683.38;;;26.21;78.65
21658;BME280;10990;48.174;9.782;2022-08-21T12:14:10;95674.84;;;25.96;83.52
21658;BME280;10990;48.174;9.782;2022-08-21T12:16:41;95673.22;;;25.94;83.96
21658;BME280;10990;48.174;9.782;2022-08-21T12:19:10;95675.25;;;26.04;79.28
21658;BME280;10990;48.174;9.782;2022-08-21T12:21:50;95671.97;;;26.19;77.71
21658;BME280;10990;48.174;9.782;2022-08-21T12:24:20;95663.03;;;26.96;75.59
21658;BME280;10990;48.174;9.782;2022-08-21T12:27:14;95668.91;;;27.10;69.00
21658;BME280;10990;48.174;9.782;2022-08-21T12:29:48;95667.47;;;26.64;70.10
21658;BME280;10990;48.174;9.782;2022-08-21T12:32:24;95672.19;;;26.51;67.02
21658;BME280;10990;48.174;9.782;2022-08-21T12:34:55;95672.09;;;26.46;67.63
21658;BME280;10990;48.174;9.782;2022-08-21T12:37:39;95670.16;;;26.42;70.67
21658;BME280;10990;48.174;9.782;2022-08-21T12:40:12;95663.16;;;27.07;70.76
21658;BME280;10990;48.174;9.782;2022-08-21T12:42:45;95658.22;;;27.25;72.18
21658;BME280;10990;48.174;9.782;2022-08-21T12:45:19;95655.56;;;27.09;63.94
21658;BME280;10990;48.174;9.782;2022-08-21T12:47:51;95663.44;;;27.54;66.71
21658;BME280;10990;48.174;9.782;2022-08-21T12:50:23;95657.53;;;27.35;63.18
21658;BME280;10990;48.174;9.782;2022-08-21T12:52:59;95659.00;;;27.21;67.34
21658;BME280;10990;48.174;9.782;2022-08-21T12:55:33;95656.34;;;26.82;73.08
21658;BME280;10990;48.174;9.782;2022-08-21T12:58:05;95654.06;;;26.96;74.61
21658;BME280;10990;48.174;9.782;2022-08-21T13:00:35;95646.41;;;26.71;79.27
21658;BME280;10990;48.174;9.782;2022-08-21T13:03:04;95649.91;;;26.32;73.13
21658;BME280;10990;48.174;9.782;2022-08-21T13:05:34;95650.75;;;25.82;78.04
21658;BME280;10990;48.174;9.782;2022-08-21T13:08:13;95644.34;;;26.39;83.28
21658;BME280;10990;48.174;9.782;2022-08-21T13:10:48;95638.00;;;26.94;83.49